Chautauqua County-Jamestown Airport
KJHW : rendu visible

Aérodrome :











RETROUVEZ-NOUS SUR...

 
LOGIN :

S'inscrire | Disclaimer

   EN    FR    IT 

 









Légende :    VFR   VFR Marginal   IFR   IFR Intensif   IFR Très Intensif
Visi : 
Plafond : 
>= 8 km
>= 3000ft
5 à 8 km
1000 à 3000 ft
1500m à 5 km
500 à 1000 ft
800 à 1500m
200 à 500 ft
< 800m
< 200 ft
Symboles :   Orages  Brouillard  Fortes neiges  Fortes précipitations  Vent > 20 kt






- Altitude de l'aérodrome : 1723 ft


KJHW - Chautauqua County-Jamestown

DERNIER METAR :
  • 240056Z AUTO 30009KT 10SM OVC048 01/M01 A3021 RMK AO2 SLP254 T00111011 FZRANO

METARs EXPIRÉS :
  • 232356Z AUTO 31012G19KT 10SM OVC050 01/M01 A3020 RMK AO2 RAE2259 SLP249 P0000 60004 T00111011 10017 20006 51012 FZRANO
  • 232325Z AUTO 30011KT 10SM SCT020 OVC050 02/M01 A3019 RMK AO2 RAE2259 P0000 FZRANO
  • 232256Z AUTO 31013G20KT 10SM -RA SCT016 BKN022 OVC040 02/00 A3018 RMK AO2 RAB40 SLP242 P0000 T00170000 FZRANO
  • 232227Z AUTO 29007KT 10SM SCT016 SCT023 OVC050 02/00 A3017 RMK AO2 FZRANO

TAF KJHW
Valide du 24 à 00h jusqu'au 25 à 00h UTC


232320Z 2400/2424 30010G18KT 6SM -RA BR OVC025
FM240200 30010KT P6SM OVC020
FM241300 00000KT P6SM OVC012
FM241800 VRB03KT P6SM BKN250
FIR KZOB / Amérique du Nord



MET'MAP, la Météo Aéronautique d'un coup d'oeil ! - Copyright ORBIFLY Décembre 2007 - Disclaimer

ORBIFLY MET'MAP TEAM :

Programmation & Développement : Alexandra Zaïnal
Sur une idée originale de : Baudouin d'Aumeries
Assistance à la programmation : Marc-Olivier Méhu
Soutien technique & logistique : Manuel Goepfert

Contact : metmap@orbifly.com




SOURCES & CREDITS :

   NOAA       Earth
Advisory